createdAt,value
2023-11-30T05:04:29.286Z,98383.13
2023-11-30T05:08:31.906Z,98380.50
2023-11-30T05:12:34.499Z,98392.41
2023-11-30T05:16:37.105Z,98391.06
2023-11-30T05:20:41.694Z,98395.84
2023-11-30T05:24:44.391Z,98400.50
2023-11-30T05:28:46.992Z,98403.31
2023-11-30T05:32:49.689Z,98397.28
2023-11-30T05:36:53.636Z,98400.06
2023-11-30T05:40:56.635Z,98405.84
2023-11-30T05:44:59.399Z,98406.06
2023-11-30T05:49:02.178Z,98411.19
2023-11-30T05:53:06.853Z,98407.88
2023-11-30T05:57:09.469Z,98415.00
2023-11-30T06:01:12.086Z,98412.69
2023-11-30T06:05:15.018Z,98406.09
2023-11-30T06:09:19.578Z,98420.50
2023-11-30T06:13:25.205Z,98423.50
2023-11-30T06:17:27.826Z,98421.56
2023-11-30T06:21:30.568Z,98420.25
2023-11-30T06:25:34.546Z,98413.97
2023-11-30T06:29:37.138Z,98416.06
2023-11-30T06:33:39.729Z,98423.84
2023-11-30T06:37:42.342Z,98424.13
2023-11-30T06:41:52.338Z,98433.88
2023-11-30T06:45:56.137Z,98432.38
2023-11-30T06:49:58.916Z,98432.41
2023-11-30T06:54:01.614Z,98430.47
2023-11-30T06:58:05.944Z,98430.03
2023-11-30T07:02:08.608Z,98426.59
2023-11-30T07:06:11.541Z,98430.09
2023-11-30T07:10:14.453Z,98430.09
2023-11-30T07:14:18.439Z,98412.38
2023-11-30T07:18:21.228Z,98413.72
2023-11-30T07:22:26.022Z,98408.44
2023-11-30T07:26:28.825Z,98406.78
2023-11-30T07:30:32.801Z,98411.59
2023-11-30T07:34:36.772Z,98416.75
2023-11-30T07:38:39.567Z,98426.00
2023-11-30T07:42:43.717Z,98423.06
2023-11-30T07:46:48.015Z,98428.06
2023-11-30T07:50:51.957Z,98417.94
2023-11-30T07:54:54.557Z,98412.63
2023-11-30T07:58:57.120Z,98413.44
2023-11-30T08:03:02.826Z,98419.75
2023-11-30T08:07:06.139Z,98420.25
2023-11-30T08:11:09.032Z,98430.00
2023-11-30T08:15:12.010Z,98430.84
2023-11-30T08:19:15.964Z,98421.72
2023-11-30T08:23:19.804Z,98429.84
2023-11-30T08:27:23.973Z,98426.66
2023-11-30T08:31:26.626Z,98432.97
2023-11-30T08:35:30.590Z,98425.84
2023-11-30T08:39:33.220Z,98416.34
2023-11-30T08:43:35.996Z,98423.63
2023-11-30T08:47:43.146Z,98420.66
2023-11-30T08:51:47.335Z,98419.34
2023-11-30T08:55:50.067Z,98414.56
2023-11-30T08:59:52.673Z,98414.88
2023-11-30T09:03:55.358Z,98412.09
2023-11-30T09:07:59.349Z,98404.72
2023-11-30T09:12:03.295Z,98406.47
2023-11-30T09:16:06.602Z,98410.78
2023-11-30T09:20:10.276Z,98411.31
2023-11-30T09:24:16.268Z,98415.91
2023-11-30T09:28:19.555Z,98410.22
2023-11-30T09:32:23.452Z,98399.13
2023-11-30T09:36:26.291Z,98393.66
2023-11-30T09:40:30.400Z,98388.28
2023-11-30T09:44:33.096Z,98374.84
2023-11-30T09:48:35.781Z,98385.94
2023-11-30T09:52:38.581Z,98379.94
2023-11-30T09:56:42.585Z,98381.66
2023-11-30T10:00:45.285Z,98373.94
2023-11-30T10:04:48.037Z,98365.81
2023-11-30T10:08:50.627Z,98363.75
2023-11-30T10:12:55.594Z,98357.81
2023-11-30T10:16:58.253Z,98359.19
2023-11-30T10:21:01.527Z,98347.34
2023-11-30T10:25:05.534Z,98332.19
2023-11-30T10:29:10.581Z,98337.06
2023-11-30T10:33:15.328Z,98328.69
2023-11-30T10:37:20.910Z,98317.13
2023-11-30T10:41:26.943Z,98318.69
2023-11-30T10:45:34.434Z,98310.72
2023-11-30T10:49:38.586Z,98305.28
2023-11-30T10:53:53.634Z,98305.28
2023-11-30T10:57:58.501Z,98310.44
2023-11-30T11:02:06.495Z,98300.63
2023-11-30T11:06:11.472Z,98292.97
2023-11-30T11:10:23.138Z,98302.31
2023-11-30T11:14:31.657Z,98298.88
2023-11-30T11:18:37.129Z,98295.03
2023-11-30T11:22:42.120Z,98296.88
2023-11-30T11:26:46.493Z,98284.66
2023-11-30T11:30:50.392Z,98289.88
2023-11-30T11:34:55.097Z,98282.38
2023-11-30T11:38:57.834Z,98279.91
2023-11-30T11:43:00.900Z,98285.94
2023-11-30T11:47:04.365Z,98281.63
2023-11-30T11:51:08.548Z,98276.63
2023-11-30T11:55:14.588Z,98281.78
2023-11-30T11:59:24.606Z,98282.00
2023-11-30T12:03:29.785Z,98280.53
2023-11-30T12:07:33.904Z,98284.56
2023-11-30T12:11:36.521Z,98276.22
2023-11-30T12:15:39.252Z,98290.88
2023-11-30T12:19:41.882Z,98278.03
2023-11-30T12:23:45.819Z,98271.63
2023-11-30T12:27:48.463Z,98281.91
2023-11-30T12:31:52.814Z,98279.13
2023-11-30T12:35:56.158Z,98283.81
2023-11-30T12:40:00.729Z,98283.44
2023-11-30T12:44:05.652Z,98283.53
2023-11-30T12:48:09.226Z,98288.41
2023-11-30T12:52:12.047Z,98287.94
2023-11-30T12:56:16.000Z,98287.31
2023-11-30T13:00:21.761Z,98291.81
2023-11-30T13:04:25.550Z,98276.50
2023-11-30T13:08:28.193Z,98284.94
2023-11-30T13:12:32.657Z,98277.03
2023-11-30T13:16:35.580Z,98275.63
2023-11-30T13:20:38.139Z,98276.28
2023-11-30T13:24:43.493Z,98265.50
2023-11-30T13:28:51.980Z,98263.56
2023-11-30T13:32:56.774Z,98260.06
2023-11-30T13:36:59.470Z,98255.56
2023-11-30T13:41:02.145Z,98254.34
2023-11-30T13:45:07.306Z,98265.00
2023-11-30T13:49:14.674Z,98262.91
2023-11-30T13:53:18.235Z,98259.75
2023-11-30T13:57:20.917Z,98260.88
2023-11-30T14:01:25.009Z,98260.09
2023-11-30T14:05:28.564Z,98250.84
2023-11-30T14:09:32.791Z,98255.72
2023-11-30T14:13:35.493Z,98264.19
2023-11-30T14:17:39.710Z,98273.69
2023-11-30T14:21:42.395Z,98268.38
2023-11-30T14:25:45.036Z,98273.69
2023-11-30T14:29:47.631Z,98274.66
2023-11-30T14:33:51.656Z,98272.28
2023-11-30T14:37:54.610Z,98276.91
2023-11-30T14:41:57.599Z,98279.06
2023-11-30T14:46:00.573Z,98283.41
2023-11-30T14:50:05.072Z,98282.59
2023-11-30T14:54:07.683Z,98282.28
2023-11-30T14:58:10.576Z,98276.31
2023-11-30T15:02:13.309Z,98281.78
2023-11-30T15:06:17.766Z,98285.06
2023-11-30T15:10:21.636Z,98294.16
2023-11-30T15:14:24.315Z,98295.13
2023-11-30T15:18:28.146Z,98298.22
2023-11-30T15:22:32.131Z,98293.25
2023-11-30T15:26:34.735Z,98300.66
2023-11-30T15:30:37.496Z,98299.00
2023-11-30T15:34:41.176Z,98295.69
2023-11-30T15:38:46.256Z,98299.09
2023-11-30T15:42:48.911Z,98304.34
2023-11-30T15:46:51.583Z,98299.47
2023-11-30T15:50:54.231Z,98291.66
2023-11-30T15:54:58.261Z,98299.84
2023-11-30T15:59:01.012Z,98303.38
2023-11-30T16:03:05.629Z,98305.03
2023-11-30T16:07:08.255Z,98297.75
2023-11-30T16:11:16.721Z,98305.16
2023-11-30T16:15:19.670Z,98306.56
2023-11-30T16:19:23.296Z,98308.16
2023-11-30T16:23:25.957Z,98315.75
2023-11-30T16:27:30.556Z,98305.59
2023-11-30T16:31:33.324Z,98306.56
2023-11-30T16:35:36.046Z,98303.16
2023-11-30T16:39:38.703Z,98299.34
2023-11-30T16:43:42.717Z,98288.78
2023-11-30T16:47:45.930Z,98292.03
2023-11-30T16:51:52.665Z,98288.00
2023-11-30T16:55:58.402Z,98295.59
2023-11-30T17:00:04.232Z,98296.47
2023-11-30T17:04:07.069Z,98287.41
2023-11-30T17:08:09.757Z,98287.19
2023-11-30T17:12:12.423Z,98292.06
2023-11-30T17:16:16.428Z,98286.16
2023-11-30T17:20:20.555Z,98293.84
2023-11-30T17:24:23.203Z,98287.88
2023-11-30T17:28:26.025Z,98296.53
2023-11-30T17:32:30.029Z,98296.38
2023-11-30T17:36:32.816Z,98292.66
2023-11-30T17:40:35.458Z,98294.25
2023-11-30T17:44:38.159Z,98290.41
2023-11-30T17:48:42.133Z,98299.00
2023-11-30T17:52:44.836Z,98297.88
2023-11-30T17:56:47.711Z,98299.00
2023-11-30T18:00:51.438Z,98304.81
2023-11-30T18:04:55.693Z,98306.31
2023-11-30T18:08:58.270Z,98298.91
2023-11-30T18:13:00.987Z,98317.41
2023-11-30T18:17:04.453Z,98326.19
2023-11-30T18:21:08.749Z,98324.72
2023-11-30T18:25:11.445Z,98325.88
2023-11-30T18:29:14.194Z,98332.72
2023-11-30T18:33:16.880Z,98321.25
2023-11-30T18:37:21.053Z,98329.28
2023-11-30T18:41:23.653Z,98321.53
2023-11-30T18:45:27.551Z,98316.63
2023-11-30T18:49:30.207Z,98306.47
2023-11-30T18:53:34.564Z,98322.81
2023-11-30T18:57:37.610Z,98317.91
2023-11-30T19:01:40.358Z,98313.59
2023-11-30T19:05:42.977Z,98317.75
2023-11-30T19:09:47.231Z,98332.50
2023-11-30T19:13:50.131Z,98330.88
2023-11-30T19:17:52.784Z,98323.41
2023-11-30T19:21:55.498Z,98321.75
2023-11-30T19:26:00.509Z,98319.53
2023-11-30T19:30:03.215Z,98326.56
2023-11-30T19:34:06.067Z,98324.09
2023-11-30T19:38:08.721Z,98328.41
2023-11-30T19:42:12.653Z,98318.81
2023-11-30T19:46:16.332Z,98328.84
2023-11-30T19:50:19.014Z,98338.75
2023-11-30T19:54:21.713Z,98336.03
2023-11-30T19:58:25.681Z,98344.09
2023-11-30T20:02:28.390Z,98354.06
2023-11-30T20:06:31.063Z,98345.22
2023-11-30T20:10:33.809Z,98364.19
2023-11-30T20:14:37.745Z,98358.53
2023-11-30T20:18:40.448Z,98357.41
2023-11-30T20:22:43.159Z,98362.53
2023-11-30T20:26:47.067Z,98365.97
2023-11-30T20:30:52.511Z,98376.41
2023-11-30T20:34:55.165Z,98371.13
2023-11-30T20:38:57.875Z,98377.63
2023-11-30T20:43:00.531Z,98378.19
2023-11-30T20:47:04.719Z,98380.66
2023-11-30T20:51:07.646Z,98383.31
2023-11-30T20:55:10.386Z,98382.13
2023-11-30T20:59:13.178Z,98378.34
2023-11-30T21:03:17.211Z,98386.19
2023-11-30T21:07:19.876Z,98391.59
2023-11-30T21:11:22.520Z,98386.72
2023-11-30T21:15:25.253Z,98388.94
2023-11-30T21:19:29.181Z,98391.97
2023-11-30T21:23:31.761Z,98402.91
2023-11-30T21:27:34.917Z,98405.53
2023-11-30T21:31:39.640Z,98403.88
2023-11-30T21:35:43.658Z,98401.50
2023-11-30T21:39:46.264Z,98392.44
2023-11-30T21:43:48.983Z,98403.66
2023-11-30T21:47:51.616Z,98392.03
2023-11-30T21:51:55.605Z,98398.25
2023-11-30T21:55:58.222Z,98396.06
2023-11-30T22:00:01.002Z,98398.31
